Terminal Aerodrome Forecast
Issued by NWS Shreveport, LA

Home | Current Version | Previous Version | Text Only | Print | Product List | Glossary On
Versions: 1 2 3 4 5 6 7 8 9 10 11 12 13 14 15 16 17 18 19 20
000
FTUS44 KSHV 071336 AAB
TAFMLU
TAF AMD
KMLU 071336Z 0714/0812 04006KT P6SM BKN019 OVC045
      TEMPO 0714/0716 SCT021 BKN045
     FM071600 08005KT P6SM OVC025
     FM080000 05005KT P6SM VCSH OVC010
     FM080600 02010KT 4SM -DZ BR OVC007=

USA.gov is the U.S. government's official web portal to all federal, state and local government web resources and services.